Time,TemperatureF,DewpointF,PressureIn,WindDirection,WindDirectionDegrees,WindSpeedMPH,WindSpeedGustMPH,Humidity,HourlyPrecipIn,Conditions,Clouds,dailyrainin,SolarRadiationWatts/m^2,SoftwareType,DateUTC
2013-03-10 00:04:00,27.9,24.0,30.29,ESE,113,0.0,0.0,85,0.00,,,0.00,0,weatherlink.com 1.10,2013-03-10 05:04:00,
2013-03-10 00:19:00,27.8,24.0,30.29,ESE,113,0.0,0.0,86,0.00,,,0.00,0,weatherlink.com 1.10,2013-03-10 05:19:00,
2013-03-10 00:35:00,27.6,24.0,30.29,ESE,113,0.0,0.0,87,0.00,,,0.00,0,weatherlink.com 1.10,2013-03-10 05:35:00,
2013-03-10 00:50:00,27.3,24.0,30.30,ESE,113,0.0,0.0,87,0.00,,,0.00,0,weatherlink.com 1.10,2013-03-10 05:50:00,
2013-03-10 01:05:00,27.0,24.0,30.31,ESE,113,0.0,0.0,87,0.00,,,0.00,0,weatherlink.com 1.10,2013-03-10 06:05:00,
2013-03-10 01:20:00,26.6,23.0,30.31,ESE,113,0.0,0.0,87,0.00,,,0.00,0,weatherlink.com 1.10,2013-03-10 06:20:00,
2013-03-10 01:35:00,26.4,23.0,30.31,ESE,113,0.0,0.0,88,0.00,,,0.00,0,weatherlink.com 1.10,2013-03-10 06:35:00,
2013-03-10 01:50:00,26.4,24.0,30.31,ESE,113,0.0,0.0,89,0.00,,,0.00,0,weatherlink.com 1.10,2013-03-10 06:50:00,
2013-03-10 03:05:00,26.6,24.0,30.31,ESE,113,0.0,0.0,89,0.00,,,0.00,0,weatherlink.com 1.10,2013-03-10 07:05:00,
2013-03-10 03:20:00,26.3,24.0,30.31,ESE,113,0.0,0.0,89,0.00,,,0.00,0,weatherlink.com 1.10,2013-03-10 07:20:00,
2013-03-10 03:35:00,26.3,24.0,30.31,ESE,113,0.0,0.0,90,0.00,,,0.00,0,weatherlink.com 1.10,2013-03-10 07:35:00,
2013-03-10 03:50:00,26.6,24.0,30.30,ESE,113,0.0,0.0,90,0.00,,,0.00,0,weatherlink.com 1.10,2013-03-10 07:50:00,
2013-03-10 04:05:00,26.1,23.0,30.29,ESE,113,0.0,0.0,89,0.00,,,0.00,0,weatherlink.com 1.10,2013-03-10 08:05:00,
2013-03-10 04:20:00,25.7,23.0,30.30,ESE,113,0.0,0.0,89,0.00,,,0.00,0,weatherlink.com 1.10,2013-03-10 08:20:00,
2013-03-10 04:35:00,25.4,23.0,30.30,ESE,113,0.0,2.0,89,0.00,,,0.00,0,weatherlink.com 1.10,2013-03-10 08:35:00,
2013-03-10 04:50:00,25.1,22.0,30.30,ESE,113,0.0,0.0,89,0.00,,,0.00,0,weatherlink.com 1.10,2013-03-10 08:50:00,
2013-03-10 05:05:00,24.7,22.0,30.30,ESE,113,0.0,0.0,89,0.00,,,0.00,0,weatherlink.com 1.10,2013-03-10 09:05:00,
2013-03-10 05:20:00,24.4,22.0,30.30,ESE,113,0.0,0.0,90,0.00,,,0.00,0,weatherlink.com 1.10,2013-03-10 09:20:00,
2013-03-10 05:35:00,24.8,23.0,30.30,ESE,113,0.0,0.0,91,0.00,,,0.00,0,weatherlink.com 1.10,2013-03-10 09:35:00,
2013-03-10 05:50:00,25.1,23.0,30.30,ESE,113,0.0,0.0,92,0.00,,,0.00,0,weatherlink.com 1.10,2013-03-10 09:50:00,
2013-03-10 06:05:00,25.0,23.0,30.30,ESE,113,0.0,0.0,92,0.00,,,0.00,0,weatherlink.com 1.10,2013-03-10 10:05:00,
2013-03-10 06:20:00,24.8,23.0,30.31,ESE,113,0.0,0.0,92,0.00,,,0.00,0,weatherlink.com 1.10,2013-03-10 10:20:00,
2013-03-10 06:35:00,24.2,22.0,30.31,ESE,113,0.0,2.0,92,0.00,,,0.00,0,weatherlink.com 1.10,2013-03-10 10:35:00,
2013-03-10 06:50:00,24.4,22.0,30.31,ESE,113,0.0,0.0,92,0.00,,,0.00,0,weatherlink.com 1.10,2013-03-10 10:50:00,
2013-03-10 07:05:00,24.4,22.0,30.31,ESE,113,0.0,0.0,92,0.00,,,0.00,0,weatherlink.com 1.10,2013-03-10 11:05:00,
2013-03-10 07:20:00,24.1,22.0,30.32,ESE,113,0.0,0.0,92,0.00,,,0.00,12,weatherlink.com 1.10,2013-03-10 11:20:00,
2013-03-10 07:35:00,23.6,21.0,30.32,ESE,113,0.0,0.0,91,0.00,,,0.00,23,weatherlink.com 1.10,2013-03-10 11:35:00,
2013-03-10 07:50:00,23.5,21.0,30.32,ESE,113,0.0,0.0,91,0.00,,,0.00,30,weatherlink.com 1.10,2013-03-10 11:50:00,
2013-03-10 08:05:00,23.6,22.0,30.33,ESE,113,0.0,0.0,92,0.00,,,0.00,37,weatherlink.com 1.10,2013-03-10 12:05:00,
2013-03-10 08:20:00,24.1,22.0,30.33,ESE,113,0.0,0.0,92,0.00,,,0.00,44,weatherlink.com 1.10,2013-03-10 12:20:00,
2013-03-10 08:35:00,24.5,23.0,30.33,ESE,113,0.0,0.0,92,0.00,,,0.00,51,weatherlink.com 1.10,2013-03-10 12:35:00,
2013-03-10 08:50:00,25.4,23.0,30.33,ESE,113,0.0,0.0,92,0.00,,,0.00,153,weatherlink.com 1.10,2013-03-10 12:50:00,
2013-03-10 09:05:00,26.6,25.0,30.34,ESE,113,0.0,0.0,93,0.00,,,0.00,190,weatherlink.com 1.10,2013-03-10 13:05:00,
2013-03-10 09:20:00,28.2,27.0,30.34,ESE,113,0.0,0.0,93,0.00,,,0.00,167,weatherlink.com 1.10,2013-03-10 13:20:00,
2013-03-10 09:35:00,29.5,28.0,30.34,ESE,113,0.0,0.0,92,0.00,,,0.00,227,weatherlink.com 1.10,2013-03-10 13:35:00,
2013-03-10 09:50:00,30.7,28.0,30.34,ESE,113,0.0,0.0,88,0.00,,,0.00,336,weatherlink.com 1.10,2013-03-10 13:50:00,
2013-03-10 10:05:00,34.7,26.0,30.33,ESE,113,4.0,6.0,71,0.00,,,0.00,554,weatherlink.com 1.10,2013-03-10 14:05:00,
2013-03-10 10:20:00,37.5,27.0,30.34,ESE,114,0.0,6.0,65,0.00,,,0.00,782,weatherlink.com 1.10,2013-03-10 14:20:00,
2013-03-10 10:35:00,36.6,25.0,30.34,ESE,113,6.0,6.0,63,0.00,,,0.00,183,weatherlink.com 1.10,2013-03-10 14:35:00,
2013-03-10 10:50:00,38.2,25.0,30.34,ESE,113,1.0,5.0,60,0.00,,,0.00,638,weatherlink.com 1.10,2013-03-10 14:50:00,
2013-03-10 11:05:00,38.8,25.0,30.33,North,355,0.0,5.0,59,0.00,,,0.00,649,weatherlink.com 1.10,2013-03-10 15:05:00,
2013-03-10 11:21:00,39.9,24.0,30.33,North,9,2.0,5.0,54,0.00,,,0.00,679,weatherlink.com 1.10,2013-03-10 15:21:00,
2013-03-10 11:36:00,40.6,24.0,30.32,South,187,8.0,9.0,52,0.00,,,0.00,703,weatherlink.com 1.10,2013-03-10 15:36:00,
2013-03-10 11:51:00,40.8,25.0,30.31,ESE,121,0.0,8.0,53,0.00,,,0.00,719,weatherlink.com 1.10,2013-03-10 15:51:00,
2013-03-10 12:06:00,41.3,24.0,30.31,SSE,166,7.0,11.0,50,0.00,,,0.00,740,weatherlink.com 1.10,2013-03-10 16:06:00,
2013-03-10 12:21:00,41.6,25.0,30.31,ESE,122,0.0,11.0,51,0.00,,,0.00,738,weatherlink.com 1.10,2013-03-10 16:21:00,
2013-03-10 12:36:00,42.3,25.0,30.30,SE,131,9.0,10.0,50,0.00,,,0.00,752,weatherlink.com 1.10,2013-03-10 16:36:00,
2013-03-10 12:51:00,42.9,25.0,30.30,East,100,1.0,10.0,49,0.00,,,0.00,758,weatherlink.com 1.10,2013-03-10 16:51:00,
2013-03-10 13:06:00,43.3,25.0,30.30,ESE,123,6.0,13.0,48,0.00,,,0.00,752,weatherlink.com 1.10,2013-03-10 17:06:00,
2013-03-10 13:21:00,43.8,26.0,30.30,SSE,163,5.0,10.0,49,0.00,,,0.00,751,weatherlink.com 1.10,2013-03-10 17:21:00,
2013-03-10 13:36:00,44.2,26.0,30.29,ESE,121,6.0,13.0,49,0.00,,,0.00,738,weatherlink.com 1.10,2013-03-10 17:36:00,
2013-03-10 13:51:00,44.5,26.0,30.29,South,190,4.0,10.0,48,0.00,,,0.00,721,weatherlink.com 1.10,2013-03-10 17:51:00,
2013-03-10 14:06:00,44.9,26.0,30.28,ESE,116,6.0,11.0,48,0.00,,,0.00,708,weatherlink.com 1.10,2013-03-10 18:06:00,
2013-03-10 14:21:00,45.5,27.0,30.28,ESE,123,5.0,11.0,48,0.00,,,0.00,686,weatherlink.com 1.10,2013-03-10 18:21:00,
2013-03-10 14:36:00,45.7,27.0,30.27,ESE,108,5.0,13.0,48,0.00,,,0.00,661,weatherlink.com 1.10,2013-03-10 18:36:00,
2013-03-10 14:51:00,45.8,26.0,30.26,SSE,166,7.0,13.0,47,0.00,,,0.00,633,weatherlink.com 1.10,2013-03-10 18:51:00,
2013-03-10 15:06:00,46.0,27.0,30.26,ESE,113,7.0,12.0,47,0.00,,,0.00,594,weatherlink.com 1.10,2013-03-10 19:06:00,
2013-03-10 15:21:00,46.5,26.0,30.27,SSE,167,4.0,12.0,45,0.00,,,0.00,550,weatherlink.com 1.10,2013-03-10 19:21:00,
2013-03-10 15:36:00,46.2,26.0,30.26,ESE,110,7.0,13.0,46,0.00,,,0.00,506,weatherlink.com 1.10,2013-03-10 19:36:00,
2013-03-10 15:51:00,46.1,27.0,30.25,SE,128,6.0,12.0,47,0.00,,,0.00,490,weatherlink.com 1.10,2013-03-10 19:51:00,
2013-03-10 16:06:00,46.0,27.0,30.25,SE,125,7.0,13.0,47,0.00,,,0.00,445,weatherlink.com 1.10,2013-03-10 20:06:00,
2013-03-10 16:21:00,46.0,27.0,30.25,SE,124,8.0,14.0,48,0.00,,,0.00,404,weatherlink.com 1.10,2013-03-10 20:21:00,
2013-03-10 16:36:00,45.7,26.0,30.25,ESE,119,10.0,13.0,47,0.00,,,0.00,360,weatherlink.com 1.10,2013-03-10 20:36:00,
2013-03-10 16:51:00,45.5,26.0,30.24,SE,138,10.0,14.0,46,0.00,,,0.00,316,weatherlink.com 1.10,2013-03-10 20:51:00,
2013-03-10 17:06:00,45.4,26.0,30.25,SSW,194,6.0,15.0,47,0.00,,,0.00,269,weatherlink.com 1.10,2013-03-10 21:06:00,
2013-03-10 17:21:00,45.1,27.0,30.25,SE,130,10.0,14.0,49,0.00,,,0.00,213,weatherlink.com 1.10,2013-03-10 21:21:00,
2013-03-10 17:36:00,44.5,27.0,30.25,SE,134,7.0,13.0,51,0.00,,,0.00,98,weatherlink.com 1.10,2013-03-10 21:36:00,
2013-03-10 17:51:00,43.6,27.0,30.23,ESE,114,6.0,13.0,52,0.00,,,0.00,51,weatherlink.com 1.10,2013-03-10 21:51:00,
2013-03-10 18:06:00,43.1,28.0,30.23,ESE,111,5.0,13.0,55,0.00,,,0.00,62,weatherlink.com 1.10,2013-03-10 22:06:00,
2013-03-10 18:21:00,42.5,28.0,30.23,SE,145,6.0,12.0,56,0.00,,,0.00,33,weatherlink.com 1.10,2013-03-10 22:21:00,
2013-03-10 18:36:00,41.8,28.0,30.23,SE,128,5.0,13.0,58,0.00,,,0.00,9,weatherlink.com 1.10,2013-03-10 22:36:00,
2013-03-10 18:51:00,41.1,28.0,30.23,SE,136,10.0,15.0,59,0.00,,,0.00,0,weatherlink.com 1.10,2013-03-10 22:51:00,
2013-03-10 19:06:00,40.5,28.0,30.24,SE,126,9.0,15.0,61,0.00,,,0.00,0,weatherlink.com 1.10,2013-03-10 23:06:00,
2013-03-10 19:21:00,39.9,28.0,30.24,SE,132,10.0,14.0,63,0.00,,,0.00,0,weatherlink.com 1.10,2013-03-10 23:21:00,
2013-03-10 19:36:00,39.3,28.0,30.25,SE,130,7.0,15.0,65,0.00,,,0.00,0,weatherlink.com 1.10,2013-03-10 23:36:00,
2013-03-10 19:51:00,38.9,28.0,30.25,SE,135,6.0,14.0,66,0.00,,,0.00,0,weatherlink.com 1.10,2013-03-10 23:51:00,
2013-03-10 20:06:00,38.3,29.0,30.25,SE,143,9.0,19.0,68,0.00,,,0.00,0,weatherlink.com 1.10,2013-03-11 00:06:00,
2013-03-10 20:21:00,37.8,29.0,30.25,SE,130,5.0,19.0,70,0.00,,,0.00,0,weatherlink.com 1.10,2013-03-11 00:21:00,
2013-03-10 20:36:00,37.3,29.0,30.25,SE,146,8.0,16.0,71,0.00,,,0.00,0,weatherlink.com 1.10,2013-03-11 00:36:00,
2013-03-10 20:51:00,36.8,29.0,30.25,SSE,167,8.0,15.0,73,0.00,,,0.00,0,weatherlink.com 1.10,2013-03-11 00:51:00,
2013-03-10 21:06:00,36.2,29.0,30.24,SSE,150,5.0,20.0,74,0.00,,,0.00,0,weatherlink.com 1.10,2013-03-11 01:06:00,
2013-03-10 21:21:00,35.9,29.0,30.24,SE,146,10.0,14.0,75,0.00,,,0.00,0,weatherlink.com 1.10,2013-03-11 01:21:00,
2013-03-10 21:51:00,35.2,29.0,30.23,SSE,152,8.0,15.0,78,0.00,,,0.00,0,weatherlink.com 1.10,2013-03-11 01:51:00,
2013-03-10 22:06:00,34.7,29.0,30.23,SE,137,8.0,14.0,79,0.00,,,0.00,0,weatherlink.com 1.10,2013-03-11 02:06:00,
2013-03-10 22:21:00,34.4,29.0,30.25,SSE,148,4.0,12.0,80,0.00,,,0.00,0,weatherlink.com 1.10,2013-03-11 02:21:00,
2013-03-10 22:36:00,34.1,29.0,30.25,SE,145,5.0,10.0,80,0.00,,,0.00,0,weatherlink.com 1.10,2013-03-11 02:36:00,
2013-03-10 22:51:00,33.8,29.0,30.24,SSE,163,7.0,12.0,81,0.00,,,0.00,0,weatherlink.com 1.10,2013-03-11 02:51:00,
2013-03-10 23:06:00,33.5,29.0,30.23,SSE,156,7.0,11.0,82,0.00,,,0.00,0,weatherlink.com 1.10,2013-03-11 03:06:00,
2013-03-10 23:21:00,33.4,29.0,30.24,SE,143,5.0,11.0,83,0.00,,,0.00,0,weatherlink.com 1.10,2013-03-11 03:21:00,
2013-03-10 23:36:00,33.2,29.0,30.23,ESE,119,9.0,13.0,84,0.00,,,0.00,0,weatherlink.com 1.10,2013-03-11 03:36:00,
2013-03-10 23:51:00,32.9,29.0,30.22,SE,146,9.0,11.0,84,0.00,,,0.00,0,weatherlink.com 1.10,2013-03-11 03:51:00,